首页
METAR-TAF:

METAR-TAF

机场 :

盐湖城, 犹他州, 美国

盐湖城国际机场

纬度: 40-46-41N, 经度: 111-58-10W, 海拔: 1288米

当前天气观测

该预报发布于15分钟前的23:54 UTC
风速9节,风向北转西北
温度 8°C
湿度 57%
气压 1028 hPa
能見度: 16.1公里
少量云层高于11000英尺
散云层高于20000英尺
多云层高于24000英尺

METAR: KSLC 172354Z 33009KT 10SM FEW110 SCT200 BKN240 08/00 A3036 RMK AO2 SLP279 T00830000 10128 20056 51009

时间: 17:09 (00:09 UTC)

预报

该预报发布于32分钟前的23:37 UTC
预报有效从18日的 00点(UTC)到 19日的 06点(UTC)
风速5节,风向西北
能見度: 10公里
散云层高于20000英尺
多云层高于25000英尺
从 18日的 0300点(UTC)
风速4节,风向
能見度: 10公里
多云层高于20000英尺
从 18日的 2100点(UTC)
风速12节,风向,有时为18节阵风
能見度: 10公里
散云层高于10000英尺
多云层高于18000英尺

TAF: KSLC 172337Z 1800/1906 32005KT P6SM SCT200 BKN250 FM180300 17004KT P6SM BKN200 FM182100 18012G18KT P6SM SCT100 BKN180

超过4000个机场的气象观测和天气预报(METAR&TAF报告)。

可查询的气象台以黄色和红色小点在地图上表示。

将鼠标移到小点上方,可查看气象台名称。

然后点击查看天气观测和预报。

如需切换地图:点击带黑十字的绿色按钮放大地图;点击带横线的绿色按钮缩小地图;或者点击绿色箭头查看邻近地区的地图。


METAR-TAF: